sensor_id;sensor_type;location;lat;lon;timestamp;temperature;humidity
21085;DHT22;34247;50.064;19.970;2023-03-15T00:00:36;27.30;25.40
21085;DHT22;34247;50.064;19.970;2023-03-15T00:01:40;27.30;25.40
21085;DHT22;34247;50.064;19.970;2023-03-15T00:02:43;27.30;25.20
21085;DHT22;34247;50.064;19.970;2023-03-15T00:03:47;27.40;25.30
21085;DHT22;34247;50.064;19.970;2023-03-15T00:04:51;27.30;25.30
21085;DHT22;34247;50.064;19.970;2023-03-15T00:05:57;27.20;25.30
21085;DHT22;34247;50.064;19.970;2023-03-15T00:07:08;27.30;25.30
21085;DHT22;34247;50.064;19.970;2023-03-15T00:08:13;27.20;25.40
21085;DHT22;34247;50.064;19.970;2023-03-15T00:09:20;27.20;25.40
21085;DHT22;34247;50.064;19.970;2023-03-15T00:10:25;27.20;25.40
21085;DHT22;34247;50.064;19.970;2023-03-15T00:11:29;27.30;25.20
21085;DHT22;34247;50.064;19.970;2023-03-15T00:12:33;27.40;25.30
21085;DHT22;34247;50.064;19.970;2023-03-15T00:13:48;27.40;25.00
21085;DHT22;34247;50.064;19.970;2023-03-15T00:14:57;27.30;24.90
21085;DHT22;34247;50.064;19.970;2023-03-15T00:16:01;27.40;24.90
21085;DHT22;34247;50.064;19.970;2023-03-15T00:17:17;27.40;24.80
21085;DHT22;34247;50.064;19.970;2023-03-15T00:18:24;27.20;24.80
21085;DHT22;34247;50.064;19.970;2023-03-15T00:19:36;27.10;24.90
21085;DHT22;34247;50.064;19.970;2023-03-15T00:20:44;27.00;24.90
21085;DHT22;34247;50.064;19.970;2023-03-15T00:21:50;27.20;24.80
21085;DHT22;34247;50.064;19.970;2023-03-15T00:22:55;27.00;24.70
21085;DHT22;34247;50.064;19.970;2023-03-15T00:24:02;27.00;24.70
21085;DHT22;34247;50.064;19.970;2023-03-15T00:25:11;27.00;24.60
21085;DHT22;34247;50.064;19.970;2023-03-15T00:26:14;26.80;24.70
21085;DHT22;34247;50.064;19.970;2023-03-15T00:27:24;26.80;24.80
21085;DHT22;34247;50.064;19.970;2023-03-15T00:28:37;26.80;24.80
21085;DHT22;34247;50.064;19.970;2023-03-15T00:29:45;26.80;24.80
21085;DHT22;34247;50.064;19.970;2023-03-15T00:31:20;26.80;24.60
21085;DHT22;34247;50.064;19.970;2023-03-15T00:32:32;26.60;24.70
21085;DHT22;34247;50.064;19.970;2023-03-15T00:33:39;26.50;24.90
21085;DHT22;34247;50.064;19.970;2023-03-15T00:34:46;26.50;25.00
21085;DHT22;34247;50.064;19.970;2023-03-15T00:35:58;26.40;25.00
21085;DHT22;34247;50.064;19.970;2023-03-15T00:37:11;26.40;25.10
21085;DHT22;34247;50.064;19.970;2023-03-15T00:38:20;26.50;25.10
21085;DHT22;34247;50.064;19.970;2023-03-15T00:39:25;26.40;25.10
21085;DHT22;34247;50.064;19.970;2023-03-15T00:40:30;26.30;25.20
21085;DHT22;34247;50.064;19.970;2023-03-15T00:41:34;26.30;25.40
21085;DHT22;34247;50.064;19.970;2023-03-15T00:42:39;26.30;25.40
21085;DHT22;34247;50.064;19.970;2023-03-15T00:43:48;26.50;25.30
21085;DHT22;34247;50.064;19.970;2023-03-15T00:44:56;26.50;25.20
21085;DHT22;34247;50.064;19.970;2023-03-15T00:46:17;26.50;25.20
21085;DHT22;34247;50.064;19.970;2023-03-15T00:47:27;26.50;25.10
21085;DHT22;34247;50.064;19.970;2023-03-15T00:48:36;26.40;25.10
21085;DHT22;34247;50.064;19.970;2023-03-15T00:49:43;26.40;25.10
21085;DHT22;34247;50.064;19.970;2023-03-15T00:51:15;26.30;25.10
21085;DHT22;34247;50.064;19.970;2023-03-15T00:52:44;26.40;25.20
21085;DHT22;34247;50.064;19.970;2023-03-15T00:53:57;26.20;25.30
21085;DHT22;34247;50.064;19.970;2023-03-15T00:55:04;26.10;25.40
21085;DHT22;34247;50.064;19.970;2023-03-15T00:56:11;26.20;25.30
21085;DHT22;34247;50.064;19.970;2023-03-15T00:57:16;26.20;25.40
21085;DHT22;34247;50.064;19.970;2023-03-15T00:58:23;26.20;25.30
21085;DHT22;34247;50.064;19.970;2023-03-15T00:59:31;26.10;25.20
21085;DHT22;34247;50.064;19.970;2023-03-15T01:00:38;26.30;25.20
21085;DHT22;34247;50.064;19.970;2023-03-15T01:01:42;26.10;25.00
21085;DHT22;34247;50.064;19.970;2023-03-15T01:02:47;26.00;25.20
21085;DHT22;34247;50.064;19.970;2023-03-15T01:03:52;25.80;25.20
21085;DHT22;34247;50.064;19.970;2023-03-15T01:04:56;26.10;25.10
21085;DHT22;34247;50.064;19.970;2023-03-15T01:06:21;25.90;25.00
21085;DHT22;34247;50.064;19.970;2023-03-15T01:07:27;26.00;24.90
21085;DHT22;34247;50.064;19.970;2023-03-15T01:08:31;25.90;24.90
21085;DHT22;34247;50.064;19.970;2023-03-15T01:09:34;25.80;25.00
21085;DHT22;34247;50.064;19.970;2023-03-15T01:10:44;25.70;24.90
21085;DHT22;34247;50.064;19.970;2023-03-15T01:11:53;25.70;24.90
21085;DHT22;34247;50.064;19.970;2023-03-15T01:12:57;25.60;24.90
21085;DHT22;34247;50.064;19.970;2023-03-15T01:14:09;25.60;24.90
21085;DHT22;34247;50.064;19.970;2023-03-15T01:15:22;25.60;24.90
21085;DHT22;34247;50.064;19.970;2023-03-15T01:16:29;25.40;24.90
21085;DHT22;34247;50.064;19.970;2023-03-15T01:17:35;25.40;24.90
21085;DHT22;34247;50.064;19.970;2023-03-15T01:18:53;25.40;24.80
21085;DHT22;34247;50.064;19.970;2023-03-15T01:20:13;25.50;24.70
21085;DHT22;34247;50.064;19.970;2023-03-15T01:21:22;25.40;24.80
21085;DHT22;34247;50.064;19.970;2023-03-15T01:22:30;25.10;24.70
21085;DHT22;34247;50.064;19.970;2023-03-15T01:23:43;24.90;24.90
21085;DHT22;34247;50.064;19.970;2023-03-15T01:25:03;25.10;25.00
21085;DHT22;34247;50.064;19.970;2023-03-15T01:26:19;24.80;25.00
21085;DHT22;34247;50.064;19.970;2023-03-15T01:27:28;24.70;25.30
21085;DHT22;34247;50.064;19.970;2023-03-15T01:28:48;24.80;25.40
21085;DHT22;34247;50.064;19.970;2023-03-15T01:29:56;24.60;25.40
21085;DHT22;34247;50.064;19.970;2023-03-15T01:31:03;24.60;25.50
21085;DHT22;34247;50.064;19.970;2023-03-15T01:32:07;24.50;25.50
21085;DHT22;34247;50.064;19.970;2023-03-15T01:33:12;24.50;25.60
21085;DHT22;34247;50.064;19.970;2023-03-15T01:34:16;24.40;25.60
21085;DHT22;34247;50.064;19.970;2023-03-15T01:35:22;24.40;25.60
21085;DHT22;34247;50.064;19.970;2023-03-15T01:36:29;24.30;25.60
21085;DHT22;34247;50.064;19.970;2023-03-15T01:37:34;24.20;25.70
21085;DHT22;34247;50.064;19.970;2023-03-15T01:38:43;24.20;25.80
21085;DHT22;34247;50.064;19.970;2023-03-15T01:39:53;24.10;25.80
21085;DHT22;34247;50.064;19.970;2023-03-15T01:41:01;24.00;25.80
21085;DHT22;34247;50.064;19.970;2023-03-15T01:42:07;24.00;25.80
21085;DHT22;34247;50.064;19.970;2023-03-15T01:43:21;23.90;26.30
21085;DHT22;34247;50.064;19.970;2023-03-15T01:44:51;24.00;25.90
21085;DHT22;34247;50.064;19.970;2023-03-15T01:46:26;24.00;25.50
21085;DHT22;34247;50.064;19.970;2023-03-15T01:47:38;24.00;25.00
21085;DHT22;34247;50.064;19.970;2023-03-15T01:48:58;23.90;25.10
21085;DHT22;34247;50.064;19.970;2023-03-15T01:50:38;23.80;25.00
21085;DHT22;34247;50.064;19.970;2023-03-15T01:52:06;23.90;24.40
21085;DHT22;34247;50.064;19.970;2023-03-15T01:53:26;23.80;24.30
21085;DHT22;34247;50.064;19.970;2023-03-15T01:54:48;23.90;24.00
21085;DHT22;34247;50.064;19.970;2023-03-15T01:56:09;23.90;23.80
21085;DHT22;34247;50.064;19.970;2023-03-15T01:58:23;23.70;23.90
21085;DHT22;34247;50.064;19.970;2023-03-15T01:59:08;23.60;23.90
21085;DHT22;34247;50.064;19.970;2023-03-15T02:00:19;23.60;23.80
21085;DHT22;34247;50.064;19.970;2023-03-15T02:01:47;23.60;23.80
21085;DHT22;34247;50.064;19.970;2023-03-15T02:03:07;23.60;23.70
21085;DHT22;34247;50.064;19.970;2023-03-15T02:04:50;23.50;23.60
21085;DHT22;34247;50.064;19.970;2023-03-15T02:06:25;23.40;23.90
21085;DHT22;34247;50.064;19.970;2023-03-15T02:07:43;23.40;23.70
21085;DHT22;34247;50.064;19.970;2023-03-15T02:09:17;23.40;23.70
21085;DHT22;34247;50.064;19.970;2023-03-15T02:12:10;23.50;23.50
21085;DHT22;34247;50.064;19.970;2023-03-15T02:13:46;23.50;23.50
21085;DHT22;34247;50.064;19.970;2023-03-15T02:15:04;23.40;23.60
21085;DHT22;34247;50.064;19.970;2023-03-15T02:16:21;23.40;23.60
21085;DHT22;34247;50.064;19.970;2023-03-15T02:19:17;23.30;23.70
21085;DHT22;34247;50.064;19.970;2023-03-15T02:21:14;23.20;23.70
21085;DHT22;34247;50.064;19.970;2023-03-15T02:22:54;23.20;23.80
21085;DHT22;34247;50.064;19.970;2023-03-15T02:24:59;23.40;23.40
21085;DHT22;34247;50.064;19.970;2023-03-15T02:27:43;23.20;24.00
21085;DHT22;34247;50.064;19.970;2023-03-15T02:28:49;23.20;23.30
21085;DHT22;34247;50.064;19.970;2023-03-15T02:30:01;23.40;23.20
21085;DHT22;34247;50.064;19.970;2023-03-15T02:31:15;23.20;23.10
21085;DHT22;34247;50.064;19.970;2023-03-15T02:32:22;23.10;23.20
21085;DHT22;34247;50.064;19.970;2023-03-15T02:33:49;23.20;23.30
21085;DHT22;34247;50.064;19.970;2023-03-15T02:35:03;23.30;23.20
21085;DHT22;34247;50.064;19.970;2023-03-15T02:36:30;23.20;23.20
21085;DHT22;34247;50.064;19.970;2023-03-15T02:37:43;23.10;23.40
21085;DHT22;34247;50.064;19.970;2023-03-15T02:39:15;23.00;23.50
21085;DHT22;34247;50.064;19.970;2023-03-15T02:40:27;23.00;23.60
21085;DHT22;34247;50.064;19.970;2023-03-15T02:41:36;22.90;23.70
21085;DHT22;34247;50.064;19.970;2023-03-15T02:43:04;22.90;23.80
21085;DHT22;34247;50.064;19.970;2023-03-15T02:44:34;22.90;23.90
21085;DHT22;34247;50.064;19.970;2023-03-15T02:46:13;22.90;24.00
21085;DHT22;34247;50.064;19.970;2023-03-15T02:47:35;22.80;24.10
21085;DHT22;34247;50.064;19.970;2023-03-15T02:49:01;22.80;24.20
21085;DHT22;34247;50.064;19.970;2023-03-15T02:50:45;22.80;24.70
21085;DHT22;34247;50.064;19.970;2023-03-15T02:52:27;22.90;24.20
21085;DHT22;34247;50.064;19.970;2023-03-15T02:53:44;23.10;24.10
21085;DHT22;34247;50.064;19.970;2023-03-15T02:54:49;23.10;24.00
21085;DHT22;34247;50.064;19.970;2023-03-15T02:55:53;23.10;24.10
21085;DHT22;34247;50.064;19.970;2023-03-15T02:56:56;23.10;24.10
21085;DHT22;34247;50.064;19.970;2023-03-15T02:58:01;23.10;24.10
21085;DHT22;34247;50.064;19.970;2023-03-15T02:59:04;23.10;24.20
21085;DHT22;34247;50.064;19.970;2023-03-15T03:00:09;23.20;24.00
21085;DHT22;34247;50.064;19.970;2023-03-15T03:01:18;23.30;24.00
21085;DHT22;34247;50.064;19.970;2023-03-15T03:02:22;23.40;23.80
21085;DHT22;34247;50.064;19.970;2023-03-15T03:03:26;23.40;23.90
21085;DHT22;34247;50.064;19.970;2023-03-15T03:04:30;23.20;23.90
21085;DHT22;34247;50.064;19.970;2023-03-15T03:05:33;23.00;23.90
21085;DHT22;34247;50.064;19.970;2023-03-15T03:06:37;23.10;24.00
21085;DHT22;34247;50.064;19.970;2023-03-15T03:07:42;23.10;23.90
21085;DHT22;34247;50.064;19.970;2023-03-15T03:09:13;23.00;23.90
21085;DHT22;34247;50.064;19.970;2023-03-15T03:10:21;23.10;24.00
21085;DHT22;34247;50.064;19.970;2023-03-15T03:11:29;23.10;24.00
21085;DHT22;34247;50.064;19.970;2023-03-15T03:12:59;23.00;24.00
21085;DHT22;34247;50.064;19.970;2023-03-15T03:14:24;23.20;23.90
21085;DHT22;34247;50.064;19.970;2023-03-15T03:15:38;23.00;23.90
21085;DHT22;34247;50.064;19.970;2023-03-15T03:16:43;23.00;24.00
21085;DHT22;34247;50.064;19.970;2023-03-15T03:17:58;23.00;24.00
21085;DHT22;34247;50.064;19.970;2023-03-15T03:20:09;23.10;24.00
21085;DHT22;34247;50.064;19.970;2023-03-15T03:21:25;23.00;24.00
21085;DHT22;34247;50.064;19.970;2023-03-15T03:22:29;22.90;24.00
21085;DHT22;34247;50.064;19.970;2023-03-15T03:23:34;23.10;23.90
21085;DHT22;34247;50.064;19.970;2023-03-15T03:24:39;22.90;23.90
21085;DHT22;34247;50.064;19.970;2023-03-15T03:25:48;22.80;24.10
21085;DHT22;34247;50.064;19.970;2023-03-15T03:26:53;22.70;24.20
21085;DHT22;34247;50.064;19.970;2023-03-15T03:28:00;22.70;24.30
21085;DHT22;34247;50.064;19.970;2023-03-15T03:29:06;22.70;24.30
21085;DHT22;34247;50.064;19.970;2023-03-15T03:30:12;22.70;24.30
21085;DHT22;34247;50.064;19.970;2023-03-15T03:31:20;22.60;24.40
21085;DHT22;34247;50.064;19.970;2023-03-15T03:32:25;22.60;24.40
21085;DHT22;34247;50.064;19.970;2023-03-15T03:33:29;22.50;24.50
21085;DHT22;34247;50.064;19.970;2023-03-15T03:34:37;22.50;24.60
21085;DHT22;34247;50.064;19.970;2023-03-15T03:35:41;22.50;24.70
21085;DHT22;34247;50.064;19.970;2023-03-15T03:36:46;22.70;24.80
21085;DHT22;34247;50.064;19.970;2023-03-15T03:37:51;22.70;24.60
21085;DHT22;34247;50.064;19.970;2023-03-15T03:38:56;22.70;24.60
21085;DHT22;34247;50.064;19.970;2023-03-15T03:40:01;22.70;24.70
21085;DHT22;34247;50.064;19.970;2023-03-15T03:41:10;22.70;24.70
21085;DHT22;34247;50.064;19.970;2023-03-15T03:42:16;22.80;24.70
21085;DHT22;34247;50.064;19.970;2023-03-15T03:43:21;22.90;24.40
21085;DHT22;34247;50.064;19.970;2023-03-15T03:44:25;22.90;24.30
21085;DHT22;34247;50.064;19.970;2023-03-15T03:45:29;22.90;24.20
21085;DHT22;34247;50.064;19.970;2023-03-15T03:46:33;22.80;24.30
21085;DHT22;34247;50.064;19.970;2023-03-15T03:47:38;22.80;24.30
21085;DHT22;34247;50.064;19.970;2023-03-15T03:48:42;22.80;24.20
21085;DHT22;34247;50.064;19.970;2023-03-15T03:49:46;22.90;24.10
21085;DHT22;34247;50.064;19.970;2023-03-15T03:50:50;22.80;24.00
21085;DHT22;34247;50.064;19.970;2023-03-15T03:51:54;22.80;24.10
21085;DHT22;34247;50.064;19.970;2023-03-15T03:52:58;22.90;24.00
21085;DHT22;34247;50.064;19.970;2023-03-15T03:54:03;23.00;23.80
21085;DHT22;34247;50.064;19.970;2023-03-15T03:55:07;22.90;23.80
21085;DHT22;34247;50.064;19.970;2023-03-15T03:56:11;22.80;23.90
21085;DHT22;34247;50.064;19.970;2023-03-15T03:57:15;23.00;23.70
21085;DHT22;34247;50.064;19.970;2023-03-15T03:58:20;22.90;23.80
21085;DHT22;34247;50.064;19.970;2023-03-15T03:59:24;22.90;23.80
21085;DHT22;34247;50.064;19.970;2023-03-15T04:00:28;22.80;23.90
21085;DHT22;34247;50.064;19.970;2023-03-15T04:01:31;22.80;23.90
21085;DHT22;34247;50.064;19.970;2023-03-15T04:02:35;22.80;23.90
21085;DHT22;34247;50.064;19.970;2023-03-15T04:03:40;22.90;23.80
21085;DHT22;34247;50.064;19.970;2023-03-15T04:04:44;23.00;23.60
21085;DHT22;34247;50.064;19.970;2023-03-15T04:05:47;23.00;23.50
21085;DHT22;34247;50.064;19.970;2023-03-15T04:06:51;22.90;23.50
21085;DHT22;34247;50.064;19.970;2023-03-15T04:07:56;22.90;23.40
21085;DHT22;34247;50.064;19.970;2023-03-15T04:09:00;22.90;23.40
21085;DHT22;34247;50.064;19.970;2023-03-15T04:10:07;22.90;23.60
21085;DHT22;34247;50.064;19.970;2023-03-15T04:11:12;22.80;24.10
21085;DHT22;34247;50.064;19.970;2023-03-15T04:12:20;22.80;23.70
21085;DHT22;34247;50.064;19.970;2023-03-15T04:13:25;22.80;23.60
21085;DHT22;34247;50.064;19.970;2023-03-15T04:14:28;22.70;23.60
21085;DHT22;34247;50.064;19.970;2023-03-15T04:15:32;22.70;23.70
21085;DHT22;34247;50.064;19.970;2023-03-15T04:16:36;22.70;23.80
21085;DHT22;34247;50.064;19.970;2023-03-15T04:17:43;22.60;23.80
21085;DHT22;34247;50.064;19.970;2023-03-15T04:18:51;22.60;23.80
21085;DHT22;34247;50.064;19.970;2023-03-15T04:19:58;22.60;23.70
21085;DHT22;34247;50.064;19.970;2023-03-15T04:21:09;22.70;23.70
21085;DHT22;34247;50.064;19.970;2023-03-15T04:22:13;22.80;23.50
21085;DHT22;34247;50.064;19.970;2023-03-15T04:23:17;22.80;23.40
21085;DHT22;34247;50.064;19.970;2023-03-15T04:24:21;22.80;23.40
21085;DHT22;34247;50.064;19.970;2023-03-15T04:25:25;22.70;23.50
21085;DHT22;34247;50.064;19.970;2023-03-15T04:26:29;22.70;23.50
21085;DHT22;34247;50.064;19.970;2023-03-15T04:27:33;22.70;23.50
21085;DHT22;34247;50.064;19.970;2023-03-15T04:28:37;22.90;23.80
21085;DHT22;34247;50.064;19.970;2023-03-15T04:29:41;22.90;23.20
21085;DHT22;34247;50.064;19.970;2023-03-15T04:30:49;22.90;23.20
21085;DHT22;34247;50.064;19.970;2023-03-15T04:31:54;22.90;23.20
21085;DHT22;34247;50.064;19.970;2023-03-15T04:33:03;22.80;23.20
21085;DHT22;34247;50.064;19.970;2023-03-15T04:34:08;22.80;23.20
21085;DHT22;34247;50.064;19.970;2023-03-15T04:35:12;22.80;23.20
21085;DHT22;34247;50.064;19.970;2023-03-15T04:36:16;22.90;23.20
21085;DHT22;34247;50.064;19.970;2023-03-15T04:37:23;22.70;23.20
21085;DHT22;34247;50.064;19.970;2023-03-15T04:38:27;22.80;23.30
21085;DHT22;34247;50.064;19.970;2023-03-15T04:39:33;22.80;23.20
21085;DHT22;34247;50.064;19.970;2023-03-15T04:40:37;23.00;22.90
21085;DHT22;34247;50.064;19.970;2023-03-15T04:41:41;23.20;22.80
21085;DHT22;34247;50.064;19.970;2023-03-15T04:42:45;23.00;22.80
21085;DHT22;34247;50.064;19.970;2023-03-15T04:43:49;22.80;22.80
21085;DHT22;34247;50.064;19.970;2023-03-15T04:44:53;22.70;23.00
21085;DHT22;34247;50.064;19.970;2023-03-15T04:45:57;22.60;23.10
21085;DHT22;34247;50.064;19.970;2023-03-15T04:47:01;22.50;23.20
21085;DHT22;34247;50.064;19.970;2023-03-15T04:48:08;22.50;23.30
21085;DHT22;34247;50.064;19.970;2023-03-15T04:49:13;22.40;23.40
21085;DHT22;34247;50.064;19.970;2023-03-15T04:50:17;22.40;23.40
21085;DHT22;34247;50.064;19.970;2023-03-15T04:51:22;22.30;23.40
21085;DHT22;34247;50.064;19.970;2023-03-15T04:52:25;22.30;23.50
21085;DHT22;34247;50.064;19.970;2023-03-15T04:53:29;22.30;23.50
21085;DHT22;34247;50.064;19.970;2023-03-15T04:54:33;22.40;23.50
21085;DHT22;34247;50.064;19.970;2023-03-15T04:55:37;22.40;23.50
21085;DHT22;34247;50.064;19.970;2023-03-15T04:56:40;22.40;23.40
21085;DHT22;34247;50.064;19.970;2023-03-15T04:57:45;22.40;23.30
21085;DHT22;34247;50.064;19.970;2023-03-15T04:58:49;22.40;23.30
21085;DHT22;34247;50.064;19.970;2023-03-15T04:59:52;22.50;23.20
21085;DHT22;34247;50.064;19.970;2023-03-15T05:00:56;22.50;23.10
21085;DHT22;34247;50.064;19.970;2023-03-15T05:02:00;22.40;23.20
21085;DHT22;34247;50.064;19.970;2023-03-15T05:03:06;22.40;23.10
21085;DHT22;34247;50.064;19.970;2023-03-15T05:04:10;22.50;23.10
21085;DHT22;34247;50.064;19.970;2023-03-15T05:05:15;22.50;23.00
21085;DHT22;34247;50.064;19.970;2023-03-15T05:06:19;22.50;22.90
21085;DHT22;34247;50.064;19.970;2023-03-15T05:07:22;22.60;22.80
21085;DHT22;34247;50.064;19.970;2023-03-15T05:08:27;22.60;22.80
21085;DHT22;34247;50.064;19.970;2023-03-15T05:09:34;22.60;22.80
21085;DHT22;34247;50.064;19.970;2023-03-15T05:10:42;22.60;22.90
21085;DHT22;34247;50.064;19.970;2023-03-15T05:11:46;22.60;22.80
21085;DHT22;34247;50.064;19.970;2023-03-15T05:12:51;22.50;22.70
21085;DHT22;34247;50.064;19.970;2023-03-15T05:13:55;22.50;22.80
21085;DHT22;34247;50.064;19.970;2023-03-15T05:14:59;22.50;22.80
21085;DHT22;34247;50.064;19.970;2023-03-15T05:16:04;22.50;22.80
21085;DHT22;34247;50.064;19.970;2023-03-15T05:17:09;22.60;22.70
21085;DHT22;34247;50.064;19.970;2023-03-15T05:18:13;22.50;22.60
21085;DHT22;34247;50.064;19.970;2023-03-15T05:19:18;22.60;22.50
21085;DHT22;34247;50.064;19.970;2023-03-15T05:20:22;22.50;22.40
21085;DHT22;34247;50.064;19.970;2023-03-15T05:21:28;22.60;22.40
21085;DHT22;34247;50.064;19.970;2023-03-15T05:22:32;22.50;23.00
21085;DHT22;34247;50.064;19.970;2023-03-15T05:23:36;22.50;22.50
21085;DHT22;34247;50.064;19.970;2023-03-15T05:24:40;22.70;22.20
21085;DHT22;34247;50.064;19.970;2023-03-15T05:25:49;22.70;22.10
21085;DHT22;34247;50.064;19.970;2023-03-15T05:27:00;22.60;22.10
21085;DHT22;34247;50.064;19.970;2023-03-15T05:28:04;22.60;22.10
21085;DHT22;34247;50.064;19.970;2023-03-15T05:29:08;22.60;22.10
21085;DHT22;34247;50.064;19.970;2023-03-15T05:30:12;22.70;22.00
21085;DHT22;34247;50.064;19.970;2023-03-15T05:31:18;22.60;22.10
21085;DHT22;34247;50.064;19.970;2023-03-15T05:32:25;22.60;22.20
21085;DHT22;34247;50.064;19.970;2023-03-15T05:33:29;22.50;22.20
21085;DHT22;34247;50.064;19.970;2023-03-15T05:34:34;22.50;22.20
21085;DHT22;34247;50.064;19.970;2023-03-15T05:35:38;22.50;22.30
21085;DHT22;34247;50.064;19.970;2023-03-15T05:36:43;22.50;22.30
21085;DHT22;34247;50.064;19.970;2023-03-15T05:37:47;22.50;22.40
21085;DHT22;34247;50.064;19.970;2023-03-15T05:38:50;22.50;22.40
21085;DHT22;34247;50.064;19.970;2023-03-15T05:39:55;22.70;22.20
21085;DHT22;34247;50.064;19.970;2023-03-15T05:41:00;22.60;22.20
21085;DHT22;34247;50.064;19.970;2023-03-15T05:42:04;22.60;22.20
21085;DHT22;34247;50.064;19.970;2023-03-15T05:43:14;22.60;22.10
21085;DHT22;34247;50.064;19.970;2023-03-15T05:44:18;22.50;22.10
21085;DHT22;34247;50.064;19.970;2023-03-15T05:45:21;22.50;22.20
21085;DHT22;34247;50.064;19.970;2023-03-15T05:46:27;22.50;22.30
21085;DHT22;34247;50.064;19.970;2023-03-15T05:47:34;22.50;22.30
21085;DHT22;34247;50.064;19.970;2023-03-15T05:48:38;22.60;22.20
21085;DHT22;34247;50.064;19.970;2023-03-15T05:49:42;22.70;22.10
21085;DHT22;34247;50.064;19.970;2023-03-15T05:50:46;22.60;22.10
21085;DHT22;34247;50.064;19.970;2023-03-15T05:51:50;22.60;22.20
21085;DHT22;34247;50.064;19.970;2023-03-15T05:52:55;22.50;22.20
21085;DHT22;34247;50.064;19.970;2023-03-15T05:53:59;22.50;22.30
21085;DHT22;34247;50.064;19.970;2023-03-15T05:55:04;22.50;22.20
21085;DHT22;34247;50.064;19.970;2023-03-15T05:56:08;22.60;22.10
21085;DHT22;34247;50.064;19.970;2023-03-15T05:57:12;22.60;22.00
21085;DHT22;34247;50.064;19.970;2023-03-15T05:58:16;22.70;22.00
21085;DHT22;34247;50.064;19.970;2023-03-15T05:59:20;22.70;22.00
21085;DHT22;34247;50.064;19.970;2023-03-15T06:00:26;22.70;21.90
21085;DHT22;34247;50.064;19.970;2023-03-15T06:01:30;22.70;21.80
21085;DHT22;34247;50.064;19.970;2023-03-15T06:02:34;22.90;21.60
21085;DHT22;34247;50.064;19.970;2023-03-15T06:03:38;22.90;21.50
21085;DHT22;34247;50.064;19.970;2023-03-15T06:04:42;22.80;21.60
21085;DHT22;34247;50.064;19.970;2023-03-15T06:05:46;22.90;21.50
21085;DHT22;34247;50.064;19.970;2023-03-15T06:06:50;22.90;21.50
21085;DHT22;34247;50.064;19.970;2023-03-15T06:07:55;22.80;21.50
21085;DHT22;34247;50.064;19.970;2023-03-15T06:08:59;22.80;21.60
21085;DHT22;34247;50.064;19.970;2023-03-15T06:10:05;22.90;21.50
21085;DHT22;34247;50.064;19.970;2023-03-15T06:11:09;22.90;21.40
21085;DHT22;34247;50.064;19.970;2023-03-15T06:12:13;22.80;21.40
21085;DHT22;34247;50.064;19.970;2023-03-15T06:13:19;22.80;21.40
21085;DHT22;34247;50.064;19.970;2023-03-15T06:14:23;22.80;21.50
21085;DHT22;34247;50.064;19.970;2023-03-15T06:15:28;22.80;21.50
21085;DHT22;34247;50.064;19.970;2023-03-15T06:16:31;22.70;21.60
21085;DHT22;34247;50.064;19.970;2023-03-15T06:17:35;22.80;21.60
21085;DHT22;34247;50.064;19.970;2023-03-15T06:18:40;22.90;21.40
21085;DHT22;34247;50.064;19.970;2023-03-15T06:19:44;22.90;21.40
21085;DHT22;34247;50.064;19.970;2023-03-15T06:20:48;22.90;21.50
21085;DHT22;34247;50.064;19.970;2023-03-15T06:21:54;22.90;21.40
21085;DHT22;34247;50.064;19.970;2023-03-15T06:22:58;22.90;21.50
21085;DHT22;34247;50.064;19.970;2023-03-15T06:24:02;22.80;21.50
21085;DHT22;34247;50.064;19.970;2023-03-15T06:25:07;22.80;21.40
21085;DHT22;34247;50.064;19.970;2023-03-15T06:26:11;22.80;21.30
21085;DHT22;34247;50.064;19.970;2023-03-15T06:27:17;22.90;21.20
21085;DHT22;34247;50.064;19.970;2023-03-15T06:28:24;22.90;21.20
21085;DHT22;34247;50.064;19.970;2023-03-15T06:29:30;22.90;21.20
21085;DHT22;34247;50.064;19.970;2023-03-15T06:30:38;22.90;21.30
21085;DHT22;34247;50.064;19.970;2023-03-15T06:31:43;23.00;21.30
21085;DHT22;34247;50.064;19.970;2023-03-15T06:32:47;22.90;21.30
21085;DHT22;34247;50.064;19.970;2023-03-15T06:33:51;22.90;21.30
21085;DHT22;34247;50.064;19.970;2023-03-15T06:34:56;22.80;21.40
21085;DHT22;34247;50.064;19.970;2023-03-15T06:36:00;22.80;21.50
21085;DHT22;34247;50.064;19.970;2023-03-15T06:37:06;22.90;21.40
21085;DHT22;34247;50.064;19.970;2023-03-15T06:38:10;23.00;21.20
21085;DHT22;34247;50.064;19.970;2023-03-15T06:39:16;22.90;21.20
21085;DHT22;34247;50.064;19.970;2023-03-15T06:40:20;22.90;21.10
21085;DHT22;34247;50.064;19.970;2023-03-15T06:43:22;22.80;21.40
21085;DHT22;34247;50.064;19.970;2023-03-15T06:44:26;22.90;21.20
21085;DHT22;34247;50.064;19.970;2023-03-15T06:45:32;22.80;21.30
21085;DHT22;34247;50.064;19.970;2023-03-15T06:46:36;22.80;21.40
21085;DHT22;34247;50.064;19.970;2023-03-15T06:47:42;22.70;21.40
21085;DHT22;34247;50.064;19.970;2023-03-15T06:48:46;22.70;21.60
21085;DHT22;34247;50.064;19.970;2023-03-15T06:49:53;22.70;21.60
21085;DHT22;34247;50.064;19.970;2023-03-15T06:50:59;22.80;21.50
21085;DHT22;34247;50.064;19.970;2023-03-15T06:52:04;22.80;21.40
21085;DHT22;34247;50.064;19.970;2023-03-15T06:53:09;22.80;21.40
21085;DHT22;34247;50.064;19.970;2023-03-15T06:54:14;22.80;21.40
21085;DHT22;34247;50.064;19.970;2023-03-15T06:55:19;22.80;21.40
21085;DHT22;34247;50.064;19.970;2023-03-15T06:56:23;22.90;21.10
21085;DHT22;34247;50.064;19.970;2023-03-15T06:57:26;23.00;21.00
21085;DHT22;34247;50.064;19.970;2023-03-15T06:58:30;23.00;21.00
21085;DHT22;34247;50.064;19.970;2023-03-15T06:59:34;22.90;21.10
21085;DHT22;34247;50.064;19.970;2023-03-15T07:00:38;22.90;21.20
21085;DHT22;34247;50.064;19.970;2023-03-15T07:01:42;22.80;21.30
21085;DHT22;34247;50.064;19.970;2023-03-15T07:02:48;22.80;21.30
21085;DHT22;34247;50.064;19.970;2023-03-15T07:03:52;22.90;21.20
21085;DHT22;34247;50.064;19.970;2023-03-15T07:04:56;22.90;21.20
21085;DHT22;34247;50.064;19.970;2023-03-15T07:06:01;22.90;21.10
21085;DHT22;34247;50.064;19.970;2023-03-15T07:07:05;23.00;21.10
21085;DHT22;34247;50.064;19.970;2023-03-15T07:08:09;23.10;21.00
21085;DHT22;34247;50.064;19.970;2023-03-15T07:09:13;23.00;21.00
21085;DHT22;34247;50.064;19.970;2023-03-15T07:10:18;23.00;21.00
21085;DHT22;34247;50.064;19.970;2023-03-15T07:11:22;23.10;20.90
21085;DHT22;34247;50.064;19.970;2023-03-15T07:12:27;23.00;20.80
21085;DHT22;34247;50.064;19.970;2023-03-15T07:13:31;23.00;20.90
21085;DHT22;34247;50.064;19.970;2023-03-15T07:14:35;23.00;21.00